Time;durP1;ratioP1;P1;durP2;ratioP2;P2;SDS_P1;SDS_P2;PMS_P1;PMS_P2;Temp;Humidity;BMP_temperature;BMP_pressure;BME280_temperature;BME280_humidity;BME280_pressure;Samples;Min_cycle;Max_cycle;Signal;HPM_P1;HPM_P2
2023/06/04 00:02:03;;;;;;;;;;;18.20;71.80;;;;;;5016984;28;87162;-46
2023/06/04 00:04:29;;;;;;;;;;;18.20;71.90;;;;;;5014834;28;87980;-47
2023/06/04 00:06:55;;;;;;;;;;;18.20;71.90;;;;;;5012447;28;87202;-46
2023/06/04 00:09:21;;;;;;;;;;;18.20;71.90;;;;;;5015237;28;87436;-47
2023/06/04 00:11:46;;;;;;;;;;;18.20;71.90;;;;;;5014256;28;88152;-46
2023/06/04 00:14:12;;;;;;;;;;;18.20;71.90;;;;;;5012699;28;86405;-47
2023/06/04 00:16:38;;;;;;;;;;;18.20;72.00;;;;;;5015141;28;87168;-47
2023/06/04 00:19:03;;;;;;;;;;;18.20;71.90;;;;;;5013862;28;88036;-46
2023/06/04 00:21:29;;;;;;;;;;;18.20;71.90;;;;;;5011829;28;88112;-46
2023/06/04 00:23:54;;;;;;;;;;;18.20;71.90;;;;;;5014796;28;89625;-46
2023/06/04 00:26:20;;;;;;;;;;;18.10;71.90;;;;;;5015694;28;87108;-45
2023/06/04 00:28:46;;;;;;;;;;;18.10;71.90;;;;;;5012997;28;87461;-46
2023/06/04 00:31:12;;;;;;;;;;;18.10;71.90;;;;;;5014887;28;88132;-46
2023/06/04 00:33:41;;;;;;;;;;;18.10;71.90;;;;;;5012849;28;87367;-46
2023/06/04 00:36:06;;;;;;;;;;;18.10;71.90;;;;;;5012404;28;87591;-48
2023/06/04 00:38:32;;;;;;;;;;;18.10;71.90;;;;;;5015211;28;87275;-46
2023/06/04 00:40:58;;;;;;;;;;;18.10;71.90;;;;;;5013041;28;87729;-46
2023/06/04 00:43:25;;;;;;;;;;;18.10;71.90;;;;;;5013964;28;87583;-46
2023/06/04 00:45:51;;;;;;;;;;;18.10;71.90;;;;;;5013896;28;89089;-46
2023/06/04 00:48:17;;;;;;;;;;;18.00;71.90;;;;;;5014127;28;88114;-46
2023/06/04 00:50:42;;;;;;;;;;;18.10;71.90;;;;;;5013313;28;88048;-45
2023/06/04 00:53:09;;;;;;;;;;;18.10;71.90;;;;;;5012189;28;87043;-47
2023/06/04 00:55:34;;;;;;;;;;;18.00;71.80;;;;;;5011309;28;87496;-46
2023/06/04 00:58:00;;;;;;;;;;;18.00;71.80;;;;;;5013096;28;88230;-47
2023/06/04 01:00:26;;;;;;;;;;;18.00;71.90;;;;;;5014490;28;87327;-47
2023/06/04 01:02:53;;;;;;;;;;;18.00;71.90;;;;;;4993993;28;90676;-47
2023/06/04 01:05:28;;;;;;;;;;;18.00;71.90;;;;;;5013126;28;87178;-47
2023/06/04 01:07:55;;;;;;;;;;;17.90;71.90;;;;;;4999165;28;87173;-46
2023/06/04 01:10:22;;;;;;;;;;;18.00;71.90;;;;;;5011160;28;89066;-46
2023/06/04 01:12:47;;;;;;;;;;;17.90;71.90;;;;;;5013349;28;87121;-46
2023/06/04 01:15:13;;;;;;;;;;;18.00;71.90;;;;;;5011951;28;87675;-46
2023/06/04 01:17:40;;;;;;;;;;;17.90;71.90;;;;;;5013666;28;88175;-47
2023/06/04 01:20:08;;;;;;;;;;;17.90;71.90;;;;;;5013192;28;87150;-46
2023/06/04 01:22:34;;;;;;;;;;;17.90;71.90;;;;;;5011505;28;87402;-46
2023/06/04 01:25:03;;;;;;;;;;;17.90;71.90;;;;;;5013535;28;87149;-46
2023/06/04 01:27:29;;;;;;;;;;;17.90;71.90;;;;;;5015103;28;86370;-47
2023/06/04 01:29:56;;;;;;;;;;;17.90;72.00;;;;;;5013820;28;87074;-47
2023/06/04 01:32:23;;;;;;;;;;;17.90;71.90;;;;;;5012956;28;87204;-47
2023/06/04 01:34:48;;;;;;;;;;;17.90;72.00;;;;;;5012951;28;88676;-47
2023/06/04 01:37:16;;;;;;;;;;;17.80;71.90;;;;;;5010950;28;87861;-46
2023/06/04 01:39:41;;;;;;;;;;;17.90;72.00;;;;;;5013271;28;87533;-48
2023/06/04 01:42:07;;;;;;;;;;;17.90;71.90;;;;;;5013507;28;87536;-47
2023/06/04 01:44:33;;;;;;;;;;;17.80;71.90;;;;;;5013800;28;88067;-46
2023/06/04 01:46:58;;;;;;;;;;;17.80;71.90;;;;;;5011508;28;87120;-46
2023/06/04 01:49:24;;;;;;;;;;;17.80;71.90;;;;;;5015152;28;87580;-46
2023/06/04 01:51:49;;;;;;;;;;;17.80;71.90;;;;;;5013371;28;86431;-46
2023/06/04 01:54:16;;;;;;;;;;;17.80;71.90;;;;;;5010671;28;86957;-47
2023/06/04 01:56:41;;;;;;;;;;;17.80;71.90;;;;;;5014026;28;88166;-47
2023/06/04 01:59:07;;;;;;;;;;;17.80;71.90;;;;;;5011040;28;88093;-47
2023/06/04 02:01:34;;;;;;;;;;;17.80;71.90;;;;;;5013846;28;88295;-46
2023/06/04 02:03:59;;;;;;;;;;;17.80;71.80;;;;;;5011078;28;88129;-46
2023/06/04 02:06:31;;;;;;;;;;;17.80;71.80;;;;;;5011840;28;87074;-46
2023/06/04 02:08:56;;;;;;;;;;;17.80;71.80;;;;;;5013606;28;88583;-46
2023/06/04 02:11:22;;;;;;;;;;;17.80;71.80;;;;;;5015150;28;87833;-47
2023/06/04 02:13:47;;;;;;;;;;;17.70;71.90;;;;;;5012287;28;87130;-47
2023/06/04 02:16:13;;;;;;;;;;;17.70;71.90;;;;;;5010925;28;87270;-46
2023/06/04 02:18:38;;;;;;;;;;;17.70;71.90;;;;;;5013179;28;87407;-46
2023/06/04 02:21:04;;;;;;;;;;;17.70;71.90;;;;;;5012192;28;87523;-47
2023/06/04 02:23:29;;;;;;;;;;;17.70;71.90;;;;;;5009796;28;88947;-46
2023/06/04 02:25:55;;;;;;;;;;;17.70;71.90;;;;;;5013190;28;87467;-47
2023/06/04 02:28:20;;;;;;;;;;;17.70;71.80;;;;;;5011831;28;87205;-45
2023/06/04 02:30:46;;;;;;;;;;;17.70;71.90;;;;;;4994095;28;89027;-48
2023/06/04 02:33:12;;;;;;;;;;;17.70;71.90;;;;;;5013236;28;87259;-46
2023/06/04 02:35:38;;;;;;;;;;;17.60;71.90;;;;;;5012499;28;87842;-46
2023/06/04 02:38:04;;;;;;;;;;;17.70;71.90;;;;;;5012188;28;87159;-46
2023/06/04 02:40:30;;;;;;;;;;;17.70;71.90;;;;;;5010579;28;87361;-46
2023/06/04 02:42:56;;;;;;;;;;;17.60;71.90;;;;;;5011775;28;87883;-46
2023/06/04 02:45:22;;;;;;;;;;;17.60;71.90;;;;;;5012132;28;87424;-46
2023/06/04 02:47:48;;;;;;;;;;;17.60;71.90;;;;;;5012326;28;88433;-46
2023/06/04 02:50:14;;;;;;;;;;;17.60;71.90;;;;;;5009924;28;88034;-46
2023/06/04 02:52:40;;;;;;;;;;;17.60;71.90;;;;;;5012145;28;87019;-47
2023/06/04 02:55:06;;;;;;;;;;;17.60;71.90;;;;;;5015052;28;87919;-46
2023/06/04 02:57:32;;;;;;;;;;;17.60;71.90;;;;;;5011231;28;87090;-46
2023/06/04 02:59:59;;;;;;;;;;;17.60;71.90;;;;;;5010710;28;87010;-46
2023/06/04 03:02:24;;;;;;;;;;;17.60;72.00;;;;;;5010511;28;88027;-46
2023/06/04 03:04:51;;;;;;;;;;;17.60;72.00;;;;;;5016098;28;86499;-46
2023/06/04 03:07:20;;;;;;;;;;;17.60;72.00;;;;;;5014196;28;87352;-46
2023/06/04 03:09:51;;;;;;;;;;;17.50;71.90;;;;;;5012709;28;88175;-45
2023/06/04 03:12:17;;;;;;;;;;;17.50;71.90;;;;;;5011532;28;89216;-46
2023/06/04 03:14:43;;;;;;;;;;;17.50;72.00;;;;;;5012110;28;88399;-46
2023/06/04 03:17:10;;;;;;;;;;;17.50;72.00;;;;;;5015357;28;88025;-46
2023/06/04 03:19:36;;;;;;;;;;;17.50;72.00;;;;;;5013339;28;87378;-46
2023/06/04 03:22:05;;;;;;;;;;;17.50;72.00;;;;;;5012621;28;87901;-46
2023/06/04 03:24:40;;;;;;;;;;;17.50;72.00;;;;;;5015670;28;87084;-46
2023/06/04 03:27:07;;;;;;;;;;;17.50;72.00;;;;;;5014424;28;87289;-46
2023/06/04 03:29:33;;;;;;;;;;;17.50;72.00;;;;;;5016461;28;86566;-47
2023/06/04 03:31:59;;;;;;;;;;;17.50;71.90;;;;;;5009496;28;87546;-47
2023/06/04 03:34:25;;;;;;;;;;;17.50;72.00;;;;;;5011513;28;88295;-46
2023/06/04 03:36:52;;;;;;;;;;;17.50;72.10;;;;;;5014269;28;89000;-46
2023/06/04 03:39:17;;;;;;;;;;;17.50;72.10;;;;;;5018178;28;87201;-47
2023/06/04 03:41:43;;;;;;;;;;;17.50;72.00;;;;;;5011065;28;88229;-46
2023/06/04 03:44:08;;;;;;;;;;;17.50;71.90;;;;;;5011310;28;87266;-46
2023/06/04 03:46:35;;;;;;;;;;;17.40;72.00;;;;;;5015895;28;87545;-45
2023/06/04 03:49:00;;;;;;;;;;;17.40;72.00;;;;;;5012537;28;88002;-46
2023/06/04 03:51:26;;;;;;;;;;;17.40;72.00;;;;;;5010903;28;87271;-46
2023/06/04 03:53:52;;;;;;;;;;;17.40;72.10;;;;;;5012270;28;88422;-47
2023/06/04 03:56:17;;;;;;;;;;;17.40;72.10;;;;;;5012516;28;88046;-47
2023/06/04 03:58:43;;;;;;;;;;;17.40;72.10;;;;;;5016946;28;87964;-47
2023/06/04 04:01:10;;;;;;;;;;;17.40;72.10;;;;;;5005131;28;89084;-47
2023/06/04 04:03:36;;;;;;;;;;;17.40;72.10;;;;;;5011881;28;87148;-46
2023/06/04 04:06:01;;;;;;;;;;;17.40;72.10;;;;;;5014940;28;87524;-46
2023/06/04 04:08:31;;;;;;;;;;;17.40;72.10;;;;;;5015547;28;88207;-47
2023/06/04 04:11:00;;;;;;;;;;;17.40;72.10;;;;;;5016166;28;87979;-46
2023/06/04 04:13:25;;;;;;;;;;;17.30;72.10;;;;;;5000848;28;89835;-46
2023/06/04 04:15:52;;;;;;;;;;;17.30;72.10;;;;;;4992866;28;87300;-48
2023/06/04 04:18:19;;;;;;;;;;;17.30;72.20;;;;;;4990782;28;87104;-46
2023/06/04 04:20:46;;;;;;;;;;;17.30;72.20;;;;;;4991213;28;87164;-46
2023/06/04 04:23:11;;;;;;;;;;;17.30;72.20;;;;;;4991234;28;87132;-47
2023/06/04 04:25:37;;;;;;;;;;;17.30;72.20;;;;;;4994832;28;88052;-46
2023/06/04 04:28:06;;;;;;;;;;;17.30;72.20;;;;;;4988654;28;88476;-46
2023/06/04 04:30:35;;;;;;;;;;;17.30;72.30;;;;;;4995825;28;88148;-47
2023/06/04 04:33:01;;;;;;;;;;;17.30;72.30;;;;;;4992366;28;88477;-46
2023/06/04 04:35:28;;;;;;;;;;;17.30;72.40;;;;;;4993614;28;88253;-46
2023/06/04 04:37:54;;;;;;;;;;;17.30;72.40;;;;;;4990818;28;87290;-46
2023/06/04 04:40:20;;;;;;;;;;;17.20;72.30;;;;;;4990267;28;87867;-46
2023/06/04 04:42:46;;;;;;;;;;;17.20;72.30;;;;;;4996171;28;87519;-46
2023/06/04 04:45:11;;;;;;;;;;;17.20;72.30;;;;;;4993459;28;88208;-46
2023/06/04 04:47:37;;;;;;;;;;;17.30;72.30;;;;;;4991222;28;88240;-46
2023/06/04 04:50:03;;;;;;;;;;;17.30;72.40;;;;;;4996984;28;88090;-46
2023/06/04 04:52:29;;;;;;;;;;;17.20;72.40;;;;;;4993837;28;87506;-46
2023/06/04 04:54:57;;;;;;;;;;;17.20;72.40;;;;;;4993469;28;87967;-46
2023/06/04 04:57:23;;;;;;;;;;;17.20;72.90;;;;;;4993064;28;87103;-48
2023/06/04 04:59:48;;;;;;;;;;;17.20;72.40;;;;;;4990792;28;87210;-47
2023/06/04 05:02:14;;;;;;;;;;;17.20;72.50;;;;;;4993420;28;88368;-46
2023/06/04 05:04:40;;;;;;;;;;;17.20;72.50;;;;;;4993287;28;87199;-46
2023/06/04 05:07:06;;;;;;;;;;;17.20;72.50;;;;;;4991583;28;87218;-45
2023/06/04 05:09:31;;;;;;;;;;;17.20;72.40;;;;;;4990914;28;87074;-46
2023/06/04 05:11:57;;;;;;;;;;;17.20;72.50;;;;;;4993453;28;87560;-46
2023/06/04 05:14:23;;;;;;;;;;;17.20;72.50;;;;;;5008002;28;88972;-47
2023/06/04 05:16:48;;;;;;;;;;;17.20;72.50;;;;;;5010104;28;87924;-46
2023/06/04 05:19:15;;;;;;;;;;;17.20;72.50;;;;;;5011502;28;87411;-46
2023/06/04 05:21:41;;;;;;;;;;;17.20;72.50;;;;;;5010507;28;89822;-46
2023/06/04 05:24:07;;;;;;;;;;;17.10;72.50;;;;;;5011255;28;87131;-46
2023/06/04 05:26:33;;;;;;;;;;;17.20;72.50;;;;;;5011626;28;89223;-46
2023/06/04 05:28:59;;;;;;;;;;;17.20;72.50;;;;;;5014154;28;87401;-46
2023/06/04 05:31:26;;;;;;;;;;;17.20;72.50;;;;;;5014190;28;87373;-48
2023/06/04 05:33:52;;;;;;;;;;;17.20;72.50;;;;;;5008346;28;88423;-46
2023/06/04 05:36:17;;;;;;;;;;;17.10;72.50;;;;;;5010901;28;87064;-46
2023/06/04 05:38:43;;;;;;;;;;;17.10;72.60;;;;;;5011027;28;88075;-47
2023/06/04 05:41:09;;;;;;;;;;;17.10;72.60;;;;;;5009196;28;88228;-46
2023/06/04 05:43:35;;;;;;;;;;;17.10;72.70;;;;;;5012808;28;87173;-46
2023/06/04 05:46:00;;;;;;;;;;;17.10;72.60;;;;;;5009478;28;87115;-46
2023/06/04 05:48:26;;;;;;;;;;;17.10;72.60;;;;;;5015021;28;87280;-46
2023/06/04 05:50:51;;;;;;;;;;;17.10;72.60;;;;;;5012479;28;87366;-46
2023/06/04 05:53:17;;;;;;;;;;;17.10;72.60;;;;;;5010849;28;87906;-45
2023/06/04 05:55:42;;;;;;;;;;;17.10;72.60;;;;;;5010532;28;86496;-48
2023/06/04 05:58:08;;;;;;;;;;;17.10;72.60;;;;;;5013368;28;88953;-45
2023/06/04 06:00:34;;;;;;;;;;;17.10;72.70;;;;;;5009256;28;88779;-48
2023/06/04 06:03:00;;;;;;;;;;;17.10;72.70;;;;;;5007723;28;88013;-46
2023/06/04 06:05:26;;;;;;;;;;;17.10;72.60;;;;;;5012530;28;88387;-46
2023/06/04 06:07:51;;;;;;;;;;;17.10;72.70;;;;;;5016614;28;88086;-47
2023/06/04 06:10:17;;;;;;;;;;;17.20;72.70;;;;;;5007183;28;87353;-46
2023/06/04 06:12:42;;;;;;;;;;;17.10;72.70;;;;;;5010740;28;88377;-46
2023/06/04 06:15:08;;;;;;;;;;;17.10;72.80;;;;;;5009910;28;87151;-47
2023/06/04 06:17:35;;;;;;;;;;;17.10;72.90;;;;;;5013175;28;87328;-46
2023/06/04 06:20:01;;;;;;;;;;;17.10;72.90;;;;;;5011693;28;88253;-47
2023/06/04 06:22:27;;;;;;;;;;;17.10;73.00;;;;;;5013740;28;87153;-46
2023/06/04 06:24:52;;;;;;;;;;;17.10;73.00;;;;;;5010127;28;87519;-46
2023/06/04 06:27:18;;;;;;;;;;;17.10;72.90;;;;;;5011581;28;88167;-46
2023/06/04 06:29:43;;;;;;;;;;;17.10;72.90;;;;;;5014873;28;87273;-46
2023/06/04 06:32:12;;;;;;;;;;;17.10;73.00;;;;;;5013977;28;88782;-46
2023/06/04 06:34:38;;;;;;;;;;;17.10;73.10;;;;;;5010954;28;87010;-46
2023/06/04 06:37:03;;;;;;;;;;;17.10;73.10;;;;;;5012831;28;87473;-46
2023/06/04 06:39:29;;;;;;;;;;;17.00;73.10;;;;;;5016997;28;88185;-46
2023/06/04 06:41:55;;;;;;;;;;;17.10;73.20;;;;;;5009604;28;87243;-46
2023/06/04 06:44:20;;;;;;;;;;;17.10;73.10;;;;;;5015634;28;87420;-46
2023/06/04 06:46:48;;;;;;;;;;;17.00;73.00;;;;;;5016176;28;88348;-46
2023/06/04 06:49:14;;;;;;;;;;;17.10;73.00;;;;;;5011462;28;87201;-46
2023/06/04 06:51:40;;;;;;;;;;;17.10;73.20;;;;;;5019711;28;88062;-46
2023/06/04 06:54:05;;;;;;;;;;;17.10;73.10;;;;;;5014707;28;87335;-47
2023/06/04 06:56:31;;;;;;;;;;;17.00;73.00;;;;;;5011015;28;87142;-46
2023/06/04 06:58:56;;;;;;;;;;;17.10;73.00;;;;;;5011225;28;88833;-47
2023/06/04 07:01:22;;;;;;;;;;;17.10;73.00;;;;;;5012505;28;87160;-46
2023/06/04 07:03:47;;;;;;;;;;;17.10;73.00;;;;;;5014155;28;87354;-46
2023/06/04 07:06:13;;;;;;;;;;;17.10;72.90;;;;;;5013126;28;87960;-47
2023/06/04 07:08:39;;;;;;;;;;;17.10;73.00;;;;;;5016610;28;86604;-46
2023/06/04 07:11:04;;;;;;;;;;;17.10;73.00;;;;;;5012578;28;86943;-46
2023/06/04 07:13:32;;;;;;;;;;;17.10;72.90;;;;;;5017829;28;87115;-46
2023/06/04 07:15:58;;;;;;;;;;;17.10;73.00;;;;;;5009874;28;88018;-46
2023/06/04 07:18:24;;;;;;;;;;;17.10;72.90;;;;;;5011024;28;88059;-48
2023/06/04 07:20:50;;;;;;;;;;;17.10;72.80;;;;;;5012620;28;87303;-46
2023/06/04 07:23:18;;;;;;;;;;;17.10;72.80;;;;;;5016251;28;87122;-46
2023/06/04 07:25:43;;;;;;;;;;;17.10;72.90;;;;;;5006449;28;87087;-47
2023/06/04 07:28:09;;;;;;;;;;;17.10;72.80;;;;;;5013842;28;87298;-47
2023/06/04 07:30:35;;;;;;;;;;;17.10;72.90;;;;;;5013619;28;87127;-46
2023/06/04 07:33:01;;;;;;;;;;;17.10;73.00;;;;;;5015974;28;87327;-46
2023/06/04 07:35:26;;;;;;;;;;;17.10;72.80;;;;;;5011624;28;87334;-46
2023/06/04 07:37:52;;;;;;;;;;;17.10;72.80;;;;;;5013468;28;88169;-46
2023/06/04 07:40:17;;;;;;;;;;;17.10;72.80;;;;;;5013510;28;88022;-46
2023/06/04 07:42:44;;;;;;;;;;;17.10;73.00;;;;;;5014293;28;87446;-46
2023/06/04 07:45:10;;;;;;;;;;;17.10;73.00;;;;;;5017955;28;88324;-46
2023/06/04 07:47:36;;;;;;;;;;;17.10;72.90;;;;;;5017368;28;87770;-45
2023/06/04 07:50:02;;;;;;;;;;;17.10;73.00;;;;;;5014853;28;87078;-46
2023/06/04 07:52:28;;;;;;;;;;;17.10;72.90;;;;;;5014099;28;88086;-47
2023/06/04 07:54:53;;;;;;;;;;;17.20;72.70;;;;;;5011274;28;87160;-46
2023/06/04 07:57:19;;;;;;;;;;;17.20;72.70;;;;;;5013899;28;87036;-46
2023/06/04 07:59:44;;;;;;;;;;;17.20;72.80;;;;;;5015156;28;87118;-46
2023/06/04 08:02:10;;;;;;;;;;;17.20;72.60;;;;;;5009644;28;87951;-46
2023/06/04 08:04:35;;;;;;;;;;;17.20;72.60;;;;;;5012488;28;88926;-49
2023/06/04 08:07:01;;;;;;;;;;;17.30;72.60;;;;;;5011957;28;87394;-47
2023/06/04 08:09:26;;;;;;;;;;;17.20;72.70;;;;;;5012795;28;87312;-46
2023/06/04 08:11:52;;;;;;;;;;;17.30;72.80;;;;;;5010090;28;87659;-45
2023/06/04 08:14:19;;;;;;;;;;;17.20;72.70;;;;;;5018083;28;87133;-47
2023/06/04 08:16:45;;;;;;;;;;;17.30;72.90;;;;;;5014767;28;87257;-46
2023/06/04 08:19:10;;;;;;;;;;;17.30;72.80;;;;;;5015578;28;87232;-45
2023/06/04 08:21:37;;;;;;;;;;;17.20;72.90;;;;;;5009720;28;86449;-47
2023/06/04 08:24:03;;;;;;;;;;;17.30;73.10;;;;;;5009394;28;88979;-46
2023/06/04 08:26:28;;;;;;;;;;;17.30;73.10;;;;;;5011629;28;87153;-46
2023/06/04 08:28:54;;;;;;;;;;;17.30;72.90;;;;;;5012512;28;87960;-46
2023/06/04 08:31:20;;;;;;;;;;;17.30;73.10;;;;;;5011555;28;87918;-47
2023/06/04 08:33:46;;;;;;;;;;;17.30;73.10;;;;;;5012292;28;87154;-46
2023/06/04 08:36:11;;;;;;;;;;;17.30;73.20;;;;;;5014960;28;87941;-46
2023/06/04 08:38:37;;;;;;;;;;;17.30;73.40;;;;;;5015966;28;88005;-46
2023/06/04 08:41:09;;;;;;;;;;;17.30;73.50;;;;;;4993793;28;89574;-46
2023/06/04 08:43:36;;;;;;;;;;;17.30;73.50;;;;;;5012734;28;88109;-46
2023/06/04 08:46:06;;;;;;;;;;;17.30;73.30;;;;;;5013514;28;86337;-47
2023/06/04 08:48:32;;;;;;;;;;;17.30;73.60;;;;;;5014135;28;86971;-46
2023/06/04 08:50:59;;;;;;;;;;;17.30;73.80;;;;;;5012937;28;87905;-46
2023/06/04 08:53:24;;;;;;;;;;;17.30;73.60;;;;;;5011619;28;88024;-46
2023/06/04 08:55:51;;;;;;;;;;;17.30;73.60;;;;;;5014757;28;88361;-46
2023/06/04 08:58:18;;;;;;;;;;;17.30;73.40;;;;;;5012493;28;87153;-47
2023/06/04 09:00:44;;;;;;;;;;;17.30;73.50;;;;;;5015358;28;87146;-46
2023/06/04 09:03:11;;;;;;;;;;;17.40;73.70;;;;;;5012202;28;88274;-47
2023/06/04 09:05:37;;;;;;;;;;;17.30;73.80;;;;;;5014067;28;88290;-47
2023/06/04 09:08:04;;;;;;;;;;;17.40;73.70;;;;;;5013585;28;87482;-46
2023/06/04 09:10:31;;;;;;;;;;;17.30;74.00;;;;;;5011828;28;86856;-46
2023/06/04 09:12:57;;;;;;;;;;;17.40;73.70;;;;;;5013511;28;87144;-46
2023/06/04 09:15:23;;;;;;;;;;;17.40;73.80;;;;;;5013654;28;87514;-46
2023/06/04 09:17:48;;;;;;;;;;;17.40;74.10;;;;;;5011888;28;89112;-45
2023/06/04 09:20:21;;;;;;;;;;;17.40;73.80;;;;;;5011958;28;87054;-46
2023/06/04 09:22:46;;;;;;;;;;;17.40;73.90;;;;;;5014343;28;87440;-45
2023/06/04 09:25:19;;;;;;;;;;;17.40;74.10;;;;;;5014458;28;87128;-46
2023/06/04 09:27:44;;;;;;;;;;;17.40;73.90;;;;;;5013506;28;87390;-45
2023/06/04 09:30:10;;;;;;;;;;;17.40;73.90;;;;;;5010966;28;88169;-46
2023/06/04 09:32:35;;;;;;;;;;;17.50;73.70;;;;;;5013768;28;87195;-46
2023/06/04 09:35:21;;;;;;;;;;;17.40;73.70;;;;;;5013116;28;87503;-46
2023/06/04 09:37:56;;;;;;;;;;;17.40;73.70;;;;;;5011660;28;88008;-46
2023/06/04 09:40:22;;;;;;;;;;;17.50;73.80;;;;;;5011077;28;87163;-46
2023/06/04 09:42:53;;;;;;;;;;;17.50;73.80;;;;;;5012689;28;88490;-46
2023/06/04 09:45:32;;;;;;;;;;;17.50;73.50;;;;;;5016636;28;87937;-47
2023/06/04 09:47:58;;;;;;;;;;;17.50;73.80;;;;;;5014103;28;87405;-46
2023/06/04 09:50:27;;;;;;;;;;;17.50;74.00;;;;;;5010891;28;87457;-46
2023/06/04 09:52:53;;;;;;;;;;;17.50;73.70;;;;;;5012996;28;87116;-46
2023/06/04 09:55:20;;;;;;;;;;;17.60;73.70;;;;;;5013380;28;87463;-46
2023/06/04 09:57:47;;;;;;;;;;;17.50;73.80;;;;;;5010740;28;88095;-46
2023/06/04 10:00:14;;;;;;;;;;;17.60;74.00;;;;;;5013515;28;86821;-46
2023/06/04 10:02:41;;;;;;;;;;;17.50;74.00;;;;;;5012019;28;87306;-45
2023/06/04 10:05:08;;;;;;;;;;;17.60;73.70;;;;;;5010503;28;87970;-46
2023/06/04 10:07:35;;;;;;;;;;;17.60;73.70;;;;;;5014767;28;87956;-45
2023/06/04 10:10:01;;;;;;;;;;;17.60;73.70;;;;;;5012945;28;88182;-45
2023/06/04 10:12:30;;;;;;;;;;;17.60;73.80;;;;;;5010601;28;87192;-46
2023/06/04 10:15:10;;;;;;;;;;;17.60;73.50;;;;;;4991890;28;87624;-46
2023/06/04 10:17:36;;;;;;;;;;;17.60;73.60;;;;;;4991172;28;87969;-46
2023/06/04 10:20:05;;;;;;;;;;;17.60;73.90;;;;;;4991203;28;87150;-46
2023/06/04 10:22:31;;;;;;;;;;;17.60;73.60;;;;;;4993368;28;87091;-46
2023/06/04 10:24:57;;;;;;;;;;;17.60;73.70;;;;;;4991497;28;87291;-47
2023/06/04 10:27:23;;;;;;;;;;;17.60;73.70;;;;;;4994690;28;87087;-46
2023/06/04 10:29:49;;;;;;;;;;;17.60;73.60;;;;;;4993401;28;88058;-46
2023/06/04 10:32:16;;;;;;;;;;;17.60;73.70;;;;;;4990329;28;88041;-47
2023/06/04 10:34:42;;;;;;;;;;;17.60;73.50;;;;;;4992651;28;88130;-46
2023/06/04 10:37:18;;;;;;;;;;;17.70;73.60;;;;;;4990126;28;88860;-47
2023/06/04 10:39:50;;;;;;;;;;;17.70;73.70;;;;;;4992071;28;87091;-46
2023/06/04 10:42:18;;;;;;;;;;;17.70;73.90;;;;;;4990496;28;87446;-47
2023/06/04 10:44:47;;;;;;;;;;;17.70;73.60;;;;;;4991974;28;88086;-46
2023/06/04 10:47:22;;;;;;;;;;;17.60;73.80;;;;;;4992852;28;87185;-46
2023/06/04 10:49:49;;;;;;;;;;;17.70;73.80;;;;;;4995694;28;87483;-46
2023/06/04 10:52:14;;;;;;;;;;;17.60;74.10;;;;;;4992883;28;87110;-46
2023/06/04 10:54:41;;;;;;;;;;;17.60;74.20;;;;;;4990542;28;87505;-45
2023/06/04 10:57:11;;;;;;;;;;;17.60;74.30;;;;;;4990840;28;89459;-46
2023/06/04 10:59:36;;;;;;;;;;;17.50;74.60;;;;;;4992789;28;87170;-46
2023/06/04 11:02:06;;;;;;;;;;;17.60;74.60;;;;;;4990050;28;87472;-46
2023/06/04 11:04:31;;;;;;;;;;;17.60;74.50;;;;;;4993112;28;88157;-45
2023/06/04 11:07:04;;;;;;;;;;;17.70;74.20;;;;;;4990479;28;87049;-47
2023/06/04 11:09:34;;;;;;;;;;;17.60;74.20;;;;;;4990959;28;87384;-46
2023/06/04 11:12:00;;;;;;;;;;;17.60;74.00;;;;;;4992903;28;88180;-46
2023/06/04 11:14:26;;;;;;;;;;;17.70;74.00;;;;;;5006651;28;86664;-45
2023/06/04 11:16:51;;;;;;;;;;;17.70;74.10;;;;;;5011562;28;87970;-46
2023/06/04 11:19:17;;;;;;;;;;;17.70;74.10;;;;;;4994040;28;87198;-46
2023/06/04 11:21:43;;;;;;;;;;;17.70;74.00;;;;;;5012066;28;88127;-46
2023/06/04 11:24:08;;;;;;;;;;;17.70;74.20;;;;;;5010230;28;88122;-46
2023/06/04 11:26:35;;;;;;;;;;;17.70;74.20;;;;;;5014495;28;87109;-47
2023/06/04 11:29:01;;;;;;;;;;;17.70;74.20;;;;;;5016388;28;87261;-46
2023/06/04 11:31:26;;;;;;;;;;;17.70;74.40;;;;;;5013368;28;88191;-46
2023/06/04 11:33:52;;;;;;;;;;;17.70;74.40;;;;;;5019157;28;87654;-46
2023/06/04 11:36:27;;;;;;;;;;;17.70;74.50;;;;;;5013350;28;88130;-46
2023/06/04 11:38:57;;;;;;;;;;;17.60;74.90;;;;;;5014711;28;86449;-46
2023/06/04 11:41:23;;;;;;;;;;;17.60;75.40;;;;;;5013155;28;87255;-46
2023/06/04 11:43:49;;;;;;;;;;;17.60;75.00;;;;;;5015237;28;88204;-47
2023/06/04 11:46:14;;;;;;;;;;;17.60;75.00;;;;;;5013852;28;88146;-47
2023/06/04 11:48:40;;;;;;;;;;;17.60;75.20;;;;;;5013559;28;88462;-47
2023/06/04 11:51:09;;;;;;;;;;;17.60;75.50;;;;;;5014844;28;88081;-47
2023/06/04 11:53:36;;;;;;;;;;;17.50;75.80;;;;;;5014143;28;87125;-46
2023/06/04 11:56:02;;;;;;;;;;;17.50;75.50;;;;;;5015554;28;87295;-47
2023/06/04 11:58:28;;;;;;;;;;;17.60;75.20;;;;;;5015703;28;87182;-46
2023/06/04 12:00:55;;;;;;;;;;;17.60;75.40;;;;;;5014064;28;87334;-47
2023/06/04 12:03:31;;;;;;;;;;;17.60;75.30;;;;;;5013375;28;87607;-46
2023/06/04 12:05:57;;;;;;;;;;;17.70;75.10;;;;;;5013206;28;87011;-46
2023/06/04 12:08:22;;;;;;;;;;;17.70;75.10;;;;;;5013471;28;88728;-46
2023/06/04 12:10:48;;;;;;;;;;;17.70;75.00;;;;;;5014504;28;89203;-46
2023/06/04 12:13:13;;;;;;;;;;;17.70;75.20;;;;;;5012697;28;87251;-47
2023/06/04 12:15:39;;;;;;;;;;;17.70;75.60;;;;;;5016342;28;87211;-46
2023/06/04 12:18:05;;;;;;;;;;;17.60;76.00;;;;;;5015212;28;87123;-46
2023/06/04 12:20:38;;;;;;;;;;;17.50;76.20;;;;;;5013016;28;87170;-47
2023/06/04 12:23:04;;;;;;;;;;;17.60;76.30;;;;;;5014394;28;88129;-46
2023/06/04 12:25:30;;;;;;;;;;;17.50;76.40;;;;;;5012585;28;87196;-46
2023/06/04 12:27:56;;;;;;;;;;;17.50;76.50;;;;;;5014994;28;86469;-46
2023/06/04 12:30:22;;;;;;;;;;;17.50;76.60;;;;;;5013979;28;87961;-46
2023/06/04 12:32:48;;;;;;;;;;;17.60;76.70;;;;;;5012448;28;87123;-46
2023/06/04 12:35:15;;;;;;;;;;;17.50;76.70;;;;;;5013260;28;88097;-46
2023/06/04 12:37:41;;;;;;;;;;;17.50;76.70;;;;;;5013377;28;88065;-45
2023/06/04 12:40:07;;;;;;;;;;;17.60;77.00;;;;;;5014342;28;88029;-46
2023/06/04 12:42:32;;;;;;;;;;;17.60;76.90;;;;;;5011480;28;89489;-46
2023/06/04 12:44:58;;;;;;;;;;;17.60;76.90;;;;;;5013483;28;87140;-45
2023/06/04 12:47:23;;;;;;;;;;;17.60;76.90;;;;;;5014145;28;87535;-45
2023/06/04 12:49:49;;;;;;;;;;;17.60;77.00;;;;;;5011642;28;88158;-46
2023/06/04 12:52:16;;;;;;;;;;;17.60;77.00;;;;;;5012411;28;86558;-46
2023/06/04 12:54:42;;;;;;;;;;;17.60;77.00;;;;;;5012367;28;87019;-45
2023/06/04 12:57:07;;;;;;;;;;;17.60;77.00;;;;;;5013348;28;88198;-47
2023/06/04 12:59:33;;;;;;;;;;;17.60;76.90;;;;;;5013608;28;88101;-46
2023/06/04 13:01:58;;;;;;;;;;;17.60;76.90;;;;;;5012298;28;88157;-46
2023/06/04 13:04:24;;;;;;;;;;;17.60;76.80;;;;;;5013587;28;87184;-46
2023/06/04 13:06:52;;;;;;;;;;;17.70;76.90;;;;;;5009402;28;88151;-46
2023/06/04 13:09:19;;;;;;;;;;;17.60;77.00;;;;;;5011589;28;88061;-46
2023/06/04 13:11:44;;;;;;;;;;;17.70;76.80;;;;;;5012766;28;87139;-46
2023/06/04 13:14:10;;;;;;;;;;;17.70;76.80;;;;;;5010193;28;87720;-46
2023/06/04 13:16:37;;;;;;;;;;;17.70;76.70;;;;;;5012245;28;87393;-46
2023/06/04 13:19:03;;;;;;;;;;;17.70;76.90;;;;;;5013541;28;87896;-46
2023/06/04 13:21:29;;;;;;;;;;;17.80;76.60;;;;;;5015079;28;87644;-47
2023/06/04 13:23:56;;;;;;;;;;;17.80;76.30;;;;;;5011735;28;88127;-46
2023/06/04 13:26:21;;;;;;;;;;;17.80;76.20;;;;;;5011692;28;87473;-46
2023/06/04 13:28:47;;;;;;;;;;;17.90;76.20;;;;;;5013374;28;88105;-47
2023/06/04 13:31:12;;;;;;;;;;;17.90;75.90;;;;;;5012056;28;87007;-46
2023/06/04 13:33:38;;;;;;;;;;;18.00;75.80;;;;;;5012053;28;87466;-46
2023/06/04 13:36:04;;;;;;;;;;;18.00;75.60;;;;;;5010690;28;87453;-46
2023/06/04 13:38:30;;;;;;;;;;;18.00;75.70;;;;;;5011133;28;87259;-46
2023/06/04 13:40:56;;;;;;;;;;;18.10;75.70;;;;;;5013238;28;86610;-46
2023/06/04 13:43:21;;;;;;;;;;;18.10;75.70;;;;;;5016351;28;87293;-46
2023/06/04 13:45:47;;;;;;;;;;;18.10;75.70;;;;;;5011232;28;87732;-47
2023/06/04 13:48:12;;;;;;;;;;;18.10;75.70;;;;;;5012096;28;88933;-48
2023/06/04 13:50:38;;;;;;;;;;;18.10;75.80;;;;;;5012965;28;87123;-47
2023/06/04 13:53:04;;;;;;;;;;;18.00;75.80;;;;;;5014146;28;87671;-46
2023/06/04 13:55:29;;;;;;;;;;;18.00;75.80;;;;;;5011291;28;88040;-46
2023/06/04 13:57:55;;;;;;;;;;;18.00;75.90;;;;;;5012312;28;87103;-45
2023/06/04 14:00:21;;;;;;;;;;;18.00;75.90;;;;;;5013052;28;87427;-47
2023/06/04 14:02:47;;;;;;;;;;;18.00;75.90;;;;;;5010036;28;87994;-46
2023/06/04 14:05:13;;;;;;;;;;;18.00;75.80;;;;;;5016005;28;86560;-46
2023/06/04 14:07:41;;;;;;;;;;;18.00;75.80;;;;;;5012181;28;87923;-47
2023/06/04 14:10:07;;;;;;;;;;;18.00;75.70;;;;;;5010885;28;87077;-46
2023/06/04 14:12:32;;;;;;;;;;;18.00;75.90;;;;;;5011917;28;87865;-46